createdAt,value
2022-12-04T12:19:47.941Z,84.80
2022-12-04T12:22:31.571Z,85.00
2022-12-04T12:25:04.517Z,85.02
2022-12-04T12:28:01.588Z,84.49
2022-12-04T12:30:39.630Z,84.45
2022-12-04T12:33:23.711Z,83.96
2022-12-04T12:36:05.991Z,84.30
2022-12-04T12:38:55.411Z,83.97
2022-12-04T12:41:28.095Z,84.51
2022-12-04T12:44:04.504Z,84.16
2022-12-04T12:46:40.589Z,85.04
2022-12-04T12:49:36.234Z,84.86
2022-12-04T12:52:20.039Z,84.94
2022-12-04T12:54:53.222Z,84.66
2022-12-04T12:57:30.922Z,84.68
2022-12-04T13:00:06.929Z,84.89
2022-12-04T13:02:42.716Z,84.45
2022-12-04T13:05:13.002Z,85.10
2022-12-04T13:08:03.935Z,84.69
2022-12-04T13:10:39.076Z,84.73
2022-12-04T13:13:10.734Z,84.18
2022-12-04T13:15:52.551Z,84.35
2022-12-04T13:18:30.816Z,84.15
2022-12-04T13:21:01.881Z,84.31
2022-12-04T13:23:42.344Z,84.66
2022-12-04T13:26:24.061Z,84.74
2022-12-04T13:29:01.606Z,84.72
2022-12-04T13:31:49.215Z,84.16
2022-12-04T13:34:40.050Z,85.00
2022-12-04T13:37:21.722Z,84.70
2022-12-04T13:40:29.645Z,84.77
2022-12-04T13:43:16.885Z,84.96
2022-12-04T13:45:46.994Z,84.25
2022-12-04T13:48:26.962Z,85.08
2022-12-04T13:51:03.004Z,85.16
2022-12-04T13:53:32.181Z,85.47
2022-12-04T13:56:04.558Z,85.42
2022-12-04T13:58:36.037Z,85.33
2022-12-04T14:01:11.290Z,84.71
2022-12-04T14:03:47.887Z,85.10
2022-12-04T14:06:24.982Z,85.34
2022-12-04T14:08:58.160Z,85.41
2022-12-04T14:11:26.649Z,85.70
2022-12-04T14:13:57.376Z,86.01
2022-12-04T14:16:28.929Z,86.10
2022-12-04T14:19:00.711Z,85.63
2022-12-04T14:21:40.049Z,86.63
2022-12-04T14:24:17.488Z,85.98
2022-12-04T14:27:10.755Z,86.00
2022-12-04T14:29:47.117Z,85.52
2022-12-04T14:32:22.321Z,85.71
2022-12-04T14:34:51.760Z,86.39
2022-12-04T14:37:27.837Z,85.89
2022-12-04T14:39:57.750Z,85.62
2022-12-04T14:42:27.278Z,85.78
2022-12-04T14:44:57.282Z,86.27
2022-12-04T14:47:37.615Z,85.99
2022-12-04T14:50:35.125Z,85.77
2022-12-04T14:53:14.254Z,86.35
2022-12-04T14:55:52.131Z,86.58
2022-12-04T14:58:34.587Z,87.15
2022-12-04T15:01:04.770Z,87.50
2022-12-04T15:03:36.229Z,87.58
2022-12-04T15:06:07.324Z,87.30
2022-12-04T15:08:35.626Z,87.67
2022-12-04T15:11:25.071Z,87.74
2022-12-04T15:13:52.659Z,87.91
2022-12-04T15:16:22.556Z,88.87
2022-12-04T15:19:01.342Z,88.71
2022-12-04T15:21:37.573Z,89.53
2022-12-04T15:24:09.445Z,89.05
2022-12-04T15:26:38.343Z,89.25
2022-12-04T15:29:08.831Z,89.22
2022-12-04T15:31:39.041Z,91.78
2022-12-04T15:34:14.478Z,88.64
2022-12-04T15:36:47.519Z,88.38
2022-12-04T15:39:19.824Z,88.69
2022-12-04T15:41:47.960Z,89.14
2022-12-04T15:44:28.445Z,88.89
2022-12-04T15:46:57.941Z,89.32
2022-12-04T15:49:27.763Z,89.48
2022-12-04T15:52:07.702Z,89.25
2022-12-04T15:54:36.218Z,89.91
2022-12-04T15:57:06.964Z,89.85
2022-12-04T15:59:36.468Z,90.32
2022-12-04T16:02:09.696Z,90.39
2022-12-04T16:04:42.440Z,90.38
2022-12-04T16:07:21.553Z,90.58
2022-12-04T16:09:59.414Z,90.98
2022-12-04T16:12:32.234Z,91.03
2022-12-04T16:14:59.767Z,90.50
2022-12-04T16:17:31.655Z,90.56
2022-12-04T16:20:00.623Z,90.70
2022-12-04T16:22:31.299Z,90.54
2022-12-04T16:24:59.175Z,90.57
2022-12-04T16:27:27.060Z,90.46
2022-12-04T16:29:54.628Z,90.52
2022-12-04T16:32:31.738Z,90.48
2022-12-04T16:34:59.850Z,91.29
2022-12-04T16:37:29.852Z,90.93
2022-12-04T16:39:58.415Z,91.06
2022-12-04T16:42:28.517Z,91.41
2022-12-04T16:44:56.862Z,91.48
2022-12-04T16:47:24.620Z,91.24
2022-12-04T16:49:53.557Z,91.75
2022-12-04T16:52:21.423Z,91.77
2022-12-04T16:54:50.346Z,91.23
2022-12-04T16:57:17.831Z,91.17
2022-12-04T16:59:45.381Z,91.28
2022-12-04T17:02:17.853Z,90.91
2022-12-04T17:04:45.513Z,91.13
2022-12-04T17:07:13.262Z,91.27
2022-12-04T17:09:40.826Z,91.59
2022-12-04T17:12:09.886Z,91.32
2022-12-04T17:14:38.861Z,91.80
2022-12-04T17:17:06.522Z,91.62
2022-12-04T17:19:34.013Z,92.06
2022-12-04T17:22:02.046Z,91.51
2022-12-04T17:24:29.537Z,91.58
2022-12-04T17:26:58.086Z,91.33
2022-12-04T17:29:26.955Z,91.28
2022-12-04T17:31:54.586Z,91.43
2022-12-04T17:34:22.095Z,91.56
2022-12-04T17:36:49.616Z,91.15
2022-12-04T17:39:17.160Z,91.79
2022-12-04T17:41:44.659Z,91.30
2022-12-04T17:44:12.148Z,91.81
2022-12-04T17:46:41.089Z,91.10
2022-12-04T17:49:08.595Z,91.55
2022-12-04T17:51:36.163Z,91.34
2022-12-04T17:54:03.832Z,92.41
2022-12-04T17:56:32.177Z,92.08
2022-12-04T17:58:59.775Z,91.53
2022-12-04T18:01:29.744Z,91.70
2022-12-04T18:04:01.695Z,91.65
2022-12-04T18:06:31.114Z,91.91
2022-12-04T18:08:59.093Z,91.56
2022-12-04T18:11:28.698Z,91.91
2022-12-04T18:13:58.087Z,91.01
2022-12-04T18:16:26.278Z,91.29
2022-12-04T18:18:54.405Z,91.18
2022-12-04T18:21:23.621Z,91.36
2022-12-04T18:23:51.528Z,90.41
2022-12-04T18:26:20.763Z,90.74
2022-12-04T18:28:50.787Z,90.61
2022-12-04T18:31:19.587Z,90.06
2022-12-04T18:33:47.761Z,90.40
2022-12-04T18:36:17.434Z,90.78
2022-12-04T18:38:46.983Z,90.92
2022-12-04T18:41:15.516Z,90.32
2022-12-04T18:43:45.260Z,90.13
2022-12-04T18:46:14.771Z,90.96
2022-12-04T18:48:44.183Z,91.48
2022-12-04T18:51:16.971Z,91.01
2022-12-04T18:53:46.482Z,91.04
2022-12-04T18:56:14.697Z,91.03
2022-12-04T18:58:42.714Z,90.87
2022-12-04T19:01:13.629Z,90.51
2022-12-04T19:03:42.510Z,90.67
2022-12-04T19:06:10.663Z,90.95
2022-12-04T19:08:42.784Z,90.75
2022-12-04T19:11:14.497Z,91.12
2022-12-04T19:13:43.017Z,90.93
2022-12-04T19:16:12.936Z,90.78
2022-12-04T19:18:40.570Z,91.31
2022-12-04T19:21:09.064Z,91.08
2022-12-04T19:23:36.582Z,91.45
2022-12-04T19:26:04.523Z,91.69
2022-12-04T19:28:33.448Z,91.31
2022-12-04T19:31:01.032Z,91.26
2022-12-04T19:33:29.214Z,91.06
2022-12-04T19:35:58.078Z,91.59
2022-12-04T19:38:26.051Z,91.32
2022-12-04T19:41:03.710Z,91.16
2022-12-04T19:43:32.627Z,91.06
2022-12-04T19:46:00.276Z,90.47
2022-12-04T19:48:28.326Z,90.47
2022-12-04T19:50:56.064Z,91.05
2022-12-04T19:53:23.690Z,91.05
2022-12-04T19:55:51.269Z,90.82
2022-12-04T19:58:18.802Z,91.04
2022-12-04T20:00:49.336Z,91.21
2022-12-04T20:03:16.933Z,90.93
2022-12-04T20:05:44.495Z,90.99
2022-12-04T20:10:38.591Z,90.61
2022-12-04T20:13:06.215Z,90.93
2022-12-04T20:15:36.117Z,90.63
2022-12-04T20:18:06.414Z,90.27
2022-12-04T20:20:34.226Z,90.32
2022-12-04T20:23:01.836Z,90.95
2022-12-04T20:25:29.366Z,90.99
2022-12-04T20:27:56.925Z,91.42
2022-12-04T20:30:24.525Z,91.26
2022-12-04T20:32:52.071Z,91.65
2022-12-04T20:35:20.979Z,91.02
2022-12-04T20:37:48.511Z,91.36
2022-12-04T20:40:16.316Z,91.78
2022-12-04T20:42:43.914Z,91.77
2022-12-04T20:45:12.306Z,91.78
2022-12-04T20:47:40.269Z,91.57
2022-12-04T20:50:09.138Z,91.89
2022-12-04T20:52:38.219Z,91.61
2022-12-04T20:55:06.749Z,91.38
2022-12-04T20:57:35.558Z,91.58
2022-12-04T21:00:03.139Z,91.76
2022-12-04T21:02:30.744Z,91.68
2022-12-04T21:04:58.317Z,91.58
2022-12-04T21:07:25.843Z,91.33
2022-12-04T21:09:55.043Z,91.73
2022-12-04T21:12:43.311Z,91.34
2022-12-04T21:15:29.367Z,91.31
2022-12-04T21:17:56.936Z,90.80
2022-12-04T21:20:24.516Z,91.19
2022-12-04T21:22:52.114Z,91.40
2022-12-04T21:25:21.496Z,91.30
2022-12-04T21:27:52.540Z,91.07
2022-12-04T21:30:20.314Z,91.13
2022-12-04T21:32:47.970Z,90.91
2022-12-04T21:35:15.557Z,91.12
2022-12-04T21:37:43.067Z,91.60
2022-12-04T21:40:11.691Z,91.87
2022-12-04T21:42:40.628Z,91.25
2022-12-04T21:45:08.881Z,91.00
2022-12-04T21:47:37.484Z,91.14
2022-12-04T21:50:05.902Z,90.78
2022-12-04T21:52:33.420Z,90.87
2022-12-04T21:55:01.176Z,91.58
2022-12-04T21:57:29.247Z,91.58
2022-12-04T21:59:58.510Z,92.05
2022-12-04T22:02:26.300Z,92.41
2022-12-04T22:04:53.891Z,92.33
2022-12-04T22:07:21.399Z,92.28
2022-12-04T22:09:48.935Z,91.88
2022-12-04T22:15:05.868Z,91.21
2022-12-04T22:17:33.457Z,91.33
2022-12-04T22:20:01.021Z,91.69
2022-12-04T22:22:28.610Z,90.97
2022-12-04T22:24:56.166Z,90.96
2022-12-04T22:27:23.723Z,91.15
2022-12-04T22:29:51.644Z,90.83
2022-12-04T22:32:21.101Z,91.00
2022-12-04T22:34:48.890Z,90.99
2022-12-04T22:37:16.462Z,91.12
2022-12-04T22:39:44.000Z,90.94
2022-12-04T22:42:11.591Z,91.23
2022-12-04T22:44:39.078Z,91.67
2022-12-04T22:47:06.657Z,91.78
2022-12-04T22:49:35.601Z,91.41
2022-12-04T22:52:03.182Z,92.13
2022-12-04T22:54:30.691Z,92.14
2022-12-04T22:56:58.231Z,91.48
2022-12-04T22:59:25.804Z,91.96
2022-12-04T23:01:53.383Z,92.42
2022-12-04T23:04:20.942Z,92.40
2022-12-04T23:06:49.863Z,92.09
2022-12-04T23:09:18.437Z,91.96
2022-12-04T23:11:46.746Z,92.26
2022-12-04T23:14:15.854Z,92.11
2022-12-04T23:16:43.685Z,92.11
2022-12-04T23:19:15.116Z,92.31
2022-12-04T23:21:43.531Z,91.69
2022-12-04T23:24:12.902Z,92.59
2022-12-04T23:26:42.572Z,93.50
2022-12-04T23:29:29.805Z,93.56
2022-12-04T23:31:57.971Z,93.71
2022-12-04T23:34:25.921Z,93.63
2022-12-04T23:36:53.472Z,93.63
2022-12-04T23:39:22.422Z,94.16
2022-12-04T23:41:50.011Z,94.34
2022-12-04T23:44:17.529Z,94.74
2022-12-04T23:46:45.320Z,94.31
2022-12-04T23:49:12.925Z,95.03
2022-12-04T23:51:40.435Z,94.45
2022-12-04T23:54:07.947Z,95.34
2022-12-04T23:56:36.907Z,94.96
2022-12-04T23:59:04.634Z,95.42
